createdAt,value
2019-06-08T00:01:22.858Z,16.19
2019-06-08T00:03:53.806Z,16.18
2019-06-08T00:06:23.539Z,16.18
2019-06-08T00:08:53.192Z,16.21
2019-06-08T00:11:23.480Z,16.24
2019-06-08T00:13:53.510Z,16.24
2019-06-08T00:16:23.785Z,16.23
2019-06-08T00:18:53.531Z,16.19
2019-06-08T00:21:24.299Z,16.19
2019-06-08T00:23:54.282Z,16.23
2019-06-08T00:26:24.467Z,16.08
2019-06-08T00:28:54.194Z,16.02
2019-06-08T00:31:23.759Z,16.05
2019-06-08T00:33:53.343Z,16.00
2019-06-08T00:36:23.149Z,15.91
2019-06-08T00:38:52.682Z,15.95
2019-06-08T00:41:23.605Z,15.95
2019-06-08T00:43:53.956Z,15.96
2019-06-08T00:46:23.740Z,15.98
2019-06-08T00:48:53.345Z,15.94
2019-06-08T00:51:23.160Z,15.88
2019-06-08T00:53:52.985Z,15.87
2019-06-08T00:56:23.794Z,15.73
2019-06-08T00:58:53.387Z,15.72
2019-06-08T01:01:25.993Z,15.72
2019-06-08T01:03:54.382Z,15.64
2019-06-08T01:06:24.993Z,15.64
2019-06-08T01:08:54.640Z,15.64
2019-06-08T01:11:24.709Z,15.65
2019-06-08T01:13:54.383Z,15.59
2019-06-08T01:16:25.024Z,15.54
2019-06-08T01:18:55.011Z,15.58
2019-06-08T01:21:25.561Z,15.54
2019-06-08T01:23:55.137Z,15.50
2019-06-08T01:26:25.964Z,15.54
2019-06-08T01:28:55.683Z,15.45
2019-06-08T01:31:26.551Z,15.48
2019-06-08T01:33:56.272Z,15.40
2019-06-08T01:36:27.416Z,15.46
2019-06-08T01:38:57.189Z,15.47
2019-06-08T01:41:27.717Z,15.43
2019-06-08T01:43:57.425Z,15.43
2019-06-08T01:46:28.289Z,15.33
2019-06-08T01:48:58.029Z,15.39
2019-06-08T01:51:28.598Z,15.36
2019-06-08T01:53:58.226Z,15.44
2019-06-08T01:56:28.964Z,15.46
2019-06-08T01:58:58.652Z,15.42
2019-06-08T02:01:28.236Z,15.43
2019-06-08T02:03:57.914Z,15.42
2019-06-08T02:06:28.450Z,15.40
2019-06-08T02:08:58.017Z,15.41
2019-06-08T02:11:28.802Z,15.35
2019-06-08T02:13:58.518Z,15.35
2019-06-08T02:16:29.717Z,15.34
2019-06-08T02:18:59.242Z,15.36
2019-06-08T02:21:28.962Z,15.41
2019-06-08T02:23:58.581Z,15.42
2019-06-08T02:26:29.164Z,15.40
2019-06-08T02:28:59.474Z,15.38
2019-06-08T02:31:30.735Z,15.35
2019-06-08T02:34:00.394Z,15.34
2019-06-08T02:36:31.593Z,15.31
2019-06-08T02:39:01.251Z,15.33
2019-06-08T02:41:30.890Z,15.34
2019-06-08T02:44:00.469Z,15.32
2019-06-08T02:46:31.029Z,15.28
2019-06-08T02:49:04.587Z,15.21
2019-06-08T02:51:34.306Z,15.26
2019-06-08T02:54:04.021Z,15.27
2019-06-08T02:56:36.451Z,15.24
2019-06-08T02:59:06.288Z,15.25
2019-06-08T03:01:38.254Z,15.21
2019-06-08T03:04:07.372Z,15.17
2019-06-08T03:06:41.443Z,15.20
2019-06-08T03:09:10.827Z,15.14
2019-06-08T03:11:41.869Z,15.15
2019-06-08T03:14:12.126Z,15.14
2019-06-08T03:16:43.300Z,15.15
2019-06-08T03:19:21.492Z,15.13
2019-06-08T03:21:44.342Z,15.14
2019-06-08T03:24:13.913Z,15.09
2019-06-08T03:26:44.193Z,15.09
2019-06-08T03:29:13.932Z,15.03
2019-06-08T03:31:54.694Z,14.97
2019-06-08T03:34:14.842Z,14.94
2019-06-08T03:36:54.691Z,14.94
2019-06-08T03:39:15.861Z,14.97
2019-06-08T03:41:45.631Z,14.88
2019-06-08T03:44:15.183Z,14.95
2019-06-08T03:46:45.977Z,14.87
2019-06-08T03:49:15.631Z,14.88
2019-06-08T03:51:48.625Z,14.83
2019-06-08T03:54:16.593Z,14.92
2019-06-08T03:56:46.248Z,14.88
2019-06-08T03:59:15.821Z,14.89
2019-06-08T04:01:46.122Z,14.91
2019-06-08T04:04:15.780Z,14.89
2019-06-08T04:06:45.771Z,14.87
2019-06-08T04:09:15.493Z,14.91
2019-06-08T04:11:46.814Z,14.86
2019-06-08T04:14:16.531Z,14.88
2019-06-08T04:16:46.783Z,14.90
2019-06-08T04:19:16.569Z,14.87
2019-06-08T04:21:46.408Z,14.87
2019-06-08T04:24:16.075Z,14.82
2019-06-08T04:26:47.215Z,14.89
2019-06-08T04:29:16.977Z,14.85
2019-06-08T04:31:46.558Z,14.92
2019-06-08T04:34:16.116Z,14.87
2019-06-08T04:36:47.926Z,14.81
2019-06-08T04:39:16.964Z,14.80
2019-06-08T04:41:47.126Z,14.79
2019-06-08T04:44:16.869Z,14.80
2019-06-08T04:46:47.851Z,14.82
2019-06-08T04:49:17.944Z,14.85
2019-06-08T04:51:49.372Z,14.79
2019-06-08T04:54:18.807Z,14.81
2019-06-08T04:56:49.546Z,14.85
2019-06-08T04:59:19.317Z,14.76
2019-06-08T05:01:49.353Z,14.80
2019-06-08T05:04:19.527Z,14.78
2019-06-08T05:06:49.678Z,14.72
2019-06-08T05:09:19.442Z,14.87
2019-06-08T05:11:49.980Z,14.79
2019-06-08T05:14:19.591Z,14.78
2019-06-08T05:16:49.645Z,14.73
2019-06-08T05:19:19.511Z,14.79
2019-06-08T05:21:49.857Z,14.70
2019-06-08T05:24:19.683Z,14.78
2019-06-08T05:26:49.703Z,14.73
2019-06-08T05:29:19.310Z,14.85
2019-06-08T05:31:49.812Z,14.85
2019-06-08T05:34:19.502Z,14.84
2019-06-08T05:36:49.998Z,14.91
2019-06-08T05:39:19.682Z,14.94
2019-06-08T05:41:49.855Z,14.87
2019-06-08T05:44:19.620Z,14.82
2019-06-08T05:46:49.959Z,14.79
2019-06-08T05:49:19.704Z,14.72
2019-06-08T05:51:50.115Z,14.72
2019-06-08T05:54:19.675Z,14.71
2019-06-08T05:56:50.469Z,14.69
2019-06-08T05:59:20.341Z,14.74
2019-06-08T06:01:51.003Z,14.74
2019-06-08T06:04:20.748Z,14.70
2019-06-08T06:06:50.898Z,14.62
2019-06-08T06:09:20.641Z,14.59
2019-06-08T06:11:51.153Z,14.67
2019-06-08T06:14:20.859Z,14.56
2019-06-08T06:16:51.366Z,14.56
2019-06-08T06:19:21.122Z,14.52
2019-06-08T06:21:51.562Z,14.63
2019-06-08T06:24:21.172Z,14.69
2019-06-08T06:26:51.663Z,14.79
2019-06-08T06:29:21.361Z,14.84
2019-06-08T06:31:52.071Z,14.86
2019-06-08T06:34:21.750Z,14.96
2019-06-08T06:36:52.186Z,15.21
2019-06-08T06:39:21.768Z,15.19
2019-06-08T06:41:52.141Z,15.22
2019-06-08T06:44:21.775Z,15.26
2019-06-08T06:46:52.481Z,15.12
2019-06-08T06:49:22.102Z,15.09
2019-06-08T06:51:52.697Z,15.10
2019-06-08T06:54:22.349Z,15.16
2019-06-08T06:56:52.031Z,15.14
2019-06-08T06:59:21.571Z,15.20
2019-06-08T07:01:54.161Z,15.23
2019-06-08T07:04:22.604Z,15.26
2019-06-08T07:06:52.348Z,15.18
2019-06-08T07:09:21.941Z,15.25
2019-06-08T07:11:51.523Z,15.28
2019-06-08T07:14:21.095Z,15.43
2019-06-08T07:16:51.907Z,15.45
2019-06-08T07:19:21.621Z,15.47
2019-06-08T07:21:53.050Z,15.64
2019-06-08T07:24:22.477Z,15.62
2019-06-08T07:26:52.469Z,15.45
2019-06-08T07:29:21.993Z,15.55
2019-06-08T07:31:52.016Z,15.60
2019-06-08T07:34:22.959Z,15.68
2019-06-08T07:36:53.333Z,15.73
2019-06-08T07:39:22.991Z,15.69
2019-06-08T07:41:54.121Z,15.68
2019-06-08T07:44:23.815Z,15.76
2019-06-08T07:46:53.733Z,15.76
2019-06-08T07:49:23.343Z,15.79
2019-06-08T07:52:02.469Z,15.84
2019-06-08T07:54:24.210Z,15.85
2019-06-08T07:56:54.916Z,15.97
2019-06-08T07:59:24.505Z,16.06
2019-06-08T08:01:56.143Z,16.16
2019-06-08T08:04:25.688Z,16.25
2019-06-08T08:06:56.568Z,16.31
2019-06-08T08:09:26.327Z,16.30
2019-06-08T08:11:57.139Z,16.27
2019-06-08T08:14:26.743Z,16.28
2019-06-08T08:16:57.183Z,16.23
2019-06-08T08:19:26.800Z,16.26
2019-06-08T08:22:00.075Z,16.40
2019-06-08T08:24:28.032Z,16.26
2019-06-08T08:27:02.046Z,16.30
2019-06-08T08:29:31.465Z,16.24
2019-06-08T08:32:01.845Z,16.10
2019-06-08T08:34:31.813Z,16.03
2019-06-08T08:37:05.946Z,15.96
2019-06-08T08:39:32.842Z,15.91
2019-06-08T08:42:05.003Z,15.86
2019-06-08T08:44:33.695Z,15.89
2019-06-08T08:47:03.293Z,16.05
2019-06-08T08:49:32.875Z,15.96
2019-06-08T08:52:02.440Z,15.95
2019-06-08T08:54:32.097Z,15.91
2019-06-08T08:57:04.941Z,15.91
2019-06-08T08:59:33.034Z,15.97
2019-06-08T09:02:03.151Z,16.08
2019-06-08T09:04:32.869Z,16.13
2019-06-08T09:07:06.825Z,16.23
2019-06-08T09:09:34.627Z,16.45
2019-06-08T09:12:04.666Z,16.74
2019-06-08T09:14:34.344Z,16.90
2019-06-08T09:17:04.235Z,17.00
2019-06-08T09:19:33.940Z,17.20
2019-06-08T09:22:04.239Z,17.32
2019-06-08T09:24:34.025Z,17.38
2019-06-08T09:27:07.776Z,17.49
2019-06-08T09:29:38.598Z,17.51
2019-06-08T09:32:08.357Z,17.67
2019-06-08T09:34:38.764Z,17.70
2019-06-08T09:37:08.660Z,17.52
2019-06-08T09:39:38.676Z,17.32
2019-06-08T09:42:09.109Z,17.20
2019-06-08T09:44:38.911Z,17.31
2019-06-08T09:47:12.310Z,17.39
2019-06-08T09:49:39.794Z,17.34
2019-06-08T09:52:09.456Z,17.25
2019-06-08T09:54:39.033Z,17.25
2019-06-08T09:57:09.314Z,17.39
2019-06-08T09:59:39.145Z,17.50
2019-06-08T10:02:12.682Z,17.40
2019-06-08T10:04:40.062Z,17.55
2019-06-08T10:07:09.656Z,17.49
2019-06-08T10:09:39.283Z,17.80
2019-06-08T10:12:09.947Z,17.90
2019-06-08T10:14:39.679Z,17.80
2019-06-08T10:17:09.319Z,17.79
2019-06-08T10:19:38.852Z,17.90
2019-06-08T10:22:08.714Z,17.95
2019-06-08T10:24:41.334Z,17.91
2019-06-08T10:27:11.672Z,18.11
2019-06-08T10:29:40.877Z,18.04
2019-06-08T10:32:12.156Z,17.91
2019-06-08T10:34:41.727Z,17.86
2019-06-08T10:37:13.320Z,17.72
2019-06-08T10:39:42.653Z,17.92
2019-06-08T10:42:12.270Z,17.88
2019-06-08T10:44:41.858Z,18.24
2019-06-08T10:47:12.034Z,18.48
2019-06-08T10:49:41.779Z,18.72
2019-06-08T10:52:12.305Z,18.94
2019-06-08T10:54:42.268Z,18.96
2019-06-08T10:57:11.881Z,19.06
2019-06-08T10:59:41.513Z,18.97
2019-06-08T11:02:13.800Z,19.03
2019-06-08T11:04:43.425Z,18.99
2019-06-08T11:07:16.141Z,19.21
2019-06-08T11:09:44.524Z,19.65
2019-06-08T11:12:15.349Z,19.62
2019-06-08T11:14:48.026Z,19.82
2019-06-08T11:17:17.984Z,20.06
2019-06-08T11:19:48.095Z,19.98
2019-06-08T11:22:18.233Z,20.06
2019-06-08T11:24:48.583Z,19.43
2019-06-08T11:27:18.729Z,19.79
2019-06-08T11:29:49.455Z,20.05
2019-06-08T11:32:19.037Z,20.16
2019-06-08T11:34:49.328Z,19.90
2019-06-08T11:37:21.143Z,19.93
2019-06-08T11:39:50.265Z,19.79
2019-06-08T11:42:19.890Z,20.18
2019-06-08T11:44:51.232Z,20.36
2019-06-08T11:47:20.815Z,20.37
2019-06-08T11:49:50.381Z,20.60
2019-06-08T11:52:19.950Z,20.16
2019-06-08T11:54:49.579Z,19.90
2019-06-08T11:57:19.622Z,20.25
2019-06-08T11:59:51.432Z,20.46
2019-06-08T12:02:21.165Z,20.47
2019-06-08T12:04:50.725Z,20.16
2019-06-08T12:07:20.313Z,19.63
2019-06-08T12:09:50.350Z,19.40
2019-06-08T12:12:21.315Z,19.54
2019-06-08T12:14:51.187Z,19.20
2019-06-08T12:17:22.564Z,18.98
2019-06-08T12:19:52.094Z,18.88
2019-06-08T12:22:21.960Z,18.92
2019-06-08T12:24:51.598Z,18.98
2019-06-08T12:27:29.718Z,18.88
2019-06-08T12:29:52.920Z,18.89
2019-06-08T12:32:22.506Z,18.83
2019-06-08T12:34:52.064Z,18.70
2019-06-08T12:37:22.443Z,18.83
2019-06-08T12:39:52.108Z,19.30
2019-06-08T12:42:24.741Z,19.56
2019-06-08T12:44:52.969Z,19.45
2019-06-08T12:47:26.711Z,19.32
2019-06-08T12:49:54.124Z,19.19
2019-06-08T12:52:23.717Z,19.29
2019-06-08T12:55:02.610Z,19.57
2019-06-08T12:57:24.950Z,19.65
2019-06-08T12:59:54.597Z,19.84
2019-06-08T13:02:24.418Z,19.76
2019-06-08T13:04:54.010Z,19.69
2019-06-08T13:07:23.561Z,19.98
2019-06-08T13:09:53.530Z,20.40
2019-06-08T13:12:23.168Z,20.20
2019-06-08T13:14:52.749Z,20.20
2019-06-08T13:17:22.335Z,20.27
2019-06-08T13:19:51.988Z,20.76
2019-06-08T13:22:27.827Z,21.35
2019-06-08T13:24:52.827Z,21.24
2019-06-08T13:27:23.239Z,20.71
2019-06-08T13:29:52.863Z,20.51
2019-06-08T13:32:22.440Z,20.04
2019-06-08T13:34:52.013Z,19.72
2019-06-08T13:37:22.238Z,19.76
2019-06-08T13:39:51.886Z,19.89
2019-06-08T13:42:22.981Z,20.30
2019-06-08T13:44:52.716Z,20.97
2019-06-08T13:47:23.146Z,21.09
2019-06-08T13:49:52.829Z,20.62
2019-06-08T13:52:23.825Z,20.62
2019-06-08T13:54:53.826Z,20.13
2019-06-08T13:57:25.021Z,19.97
2019-06-08T13:59:54.750Z,20.62
2019-06-08T14:02:28.381Z,20.85
2019-06-08T14:04:55.712Z,20.78
2019-06-08T14:07:31.185Z,20.22
2019-06-08T14:09:58.249Z,20.07
2019-06-08T14:12:30.645Z,20.07
2019-06-08T14:14:59.275Z,20.58
2019-06-08T14:17:28.908Z,20.95
2019-06-08T14:19:59.342Z,21.28
2019-06-08T14:22:30.361Z,21.54
2019-06-08T14:25:00.105Z,21.78
2019-06-08T14:27:32.938Z,21.51
2019-06-08T14:30:01.167Z,20.82
2019-06-08T14:32:30.751Z,20.26
2019-06-08T14:35:02.824Z,19.85
2019-06-08T14:37:31.615Z,19.42
2019-06-08T14:40:01.278Z,19.05
2019-06-08T14:42:31.786Z,18.05
2019-06-08T14:45:01.406Z,17.41
2019-06-08T14:47:30.977Z,17.64
2019-06-08T14:50:01.830Z,18.42
2019-06-08T14:52:31.709Z,19.14
2019-06-08T14:55:01.416Z,19.37
2019-06-08T14:57:31.054Z,19.57
2019-06-08T15:00:08.444Z,19.90
2019-06-08T15:02:32.273Z,20.08
2019-06-08T15:05:01.835Z,20.52
2019-06-08T15:07:32.747Z,21.08
2019-06-08T15:10:02.514Z,21.04
2019-06-08T15:12:32.093Z,21.37
2019-06-08T15:15:01.679Z,21.20
2019-06-08T15:17:32.098Z,21.20
2019-06-08T15:20:02.039Z,20.61
2019-06-08T15:22:31.996Z,20.47
2019-06-08T15:25:01.690Z,20.62
2019-06-08T15:27:33.331Z,21.20
2019-06-08T15:30:02.546Z,21.12
2019-06-08T15:32:35.400Z,20.84
2019-06-08T15:35:04.376Z,20.67
2019-06-08T15:37:34.025Z,20.75
2019-06-08T15:40:07.518Z,20.55
2019-06-08T15:42:36.839Z,20.58
2019-06-08T15:45:08.310Z,20.64
2019-06-08T15:47:40.761Z,20.71
2019-06-08T15:50:10.132Z,20.51
2019-06-08T15:52:39.764Z,20.29
2019-06-08T15:55:11.252Z,20.35
2019-06-08T15:57:41.387Z,20.49
2019-06-08T16:00:11.849Z,20.66
2019-06-08T16:02:41.448Z,20.88
2019-06-08T16:05:11.168Z,20.87
2019-06-08T16:07:40.771Z,20.88
2019-06-08T16:10:10.762Z,20.72
2019-06-08T16:12:40.808Z,20.74
2019-06-08T16:15:10.959Z,20.28
2019-06-08T16:17:40.544Z,20.28
2019-06-08T16:20:10.359Z,20.14
2019-06-08T16:22:39.940Z,20.23
2019-06-08T16:25:10.048Z,20.20
2019-06-08T16:27:39.699Z,20.11
2019-06-08T16:30:10.070Z,19.76
2019-06-08T16:32:39.895Z,19.73
2019-06-08T16:35:10.049Z,19.66
2019-06-08T16:37:39.941Z,19.50
2019-06-08T16:40:10.459Z,19.36
2019-06-08T16:42:40.075Z,19.32
2019-06-08T16:45:10.355Z,19.37
2019-06-08T16:47:43.220Z,19.30
2019-06-08T16:50:24.067Z,19.22
2019-06-08T16:52:43.891Z,19.16
2019-06-08T16:55:13.621Z,18.98
2019-06-08T16:57:43.194Z,19.07
2019-06-08T17:02:44.760Z,19.02
2019-06-08T17:05:14.315Z,18.92
2019-06-08T17:07:43.877Z,18.75
2019-06-08T17:10:13.603Z,18.60
2019-06-08T17:12:43.185Z,18.30
2019-06-08T17:15:13.708Z,18.06
2019-06-08T17:17:43.282Z,17.73
2019-06-08T17:20:13.004Z,17.74
2019-06-08T17:22:42.600Z,17.68
2019-06-08T17:25:12.330Z,17.71
2019-06-08T17:27:41.965Z,17.86
2019-06-08T17:30:11.827Z,17.86
2019-06-08T17:32:42.299Z,18.24
2019-06-08T17:35:12.375Z,18.36
2019-06-08T17:37:42.181Z,18.29
2019-06-08T17:40:12.469Z,18.26
2019-06-08T17:42:42.035Z,18.31
2019-06-08T17:45:12.263Z,18.16
2019-06-08T17:47:42.822Z,18.22
2019-06-08T17:50:12.709Z,18.08
2019-06-08T17:52:43.064Z,17.86
2019-06-08T17:55:13.249Z,17.85
2019-06-08T17:57:52.773Z,17.76
2019-06-08T18:00:16.502Z,17.67
2019-06-08T18:02:48.194Z,17.74
2019-06-08T18:05:18.291Z,17.67
2019-06-08T18:07:49.014Z,17.58
2019-06-08T18:10:19.106Z,17.64
2019-06-08T18:12:49.370Z,17.53
2019-06-08T18:15:19.202Z,17.55
2019-06-08T18:17:49.943Z,17.58
2019-06-08T18:20:19.744Z,17.59
2019-06-08T18:22:50.184Z,17.77
2019-06-08T18:25:19.817Z,17.80
2019-06-08T18:28:05.468Z,17.69
2019-06-08T18:30:24.263Z,17.63
2019-06-08T18:32:54.052Z,17.63
2019-06-08T18:35:23.642Z,17.60
2019-06-08T18:37:53.476Z,17.61
2019-06-08T18:40:23.139Z,17.54
2019-06-08T18:42:53.163Z,17.52
2019-06-08T18:45:22.806Z,17.48
2019-06-08T18:47:52.388Z,17.43
2019-06-08T18:50:22.064Z,17.32
2019-06-08T18:52:51.738Z,17.16
2019-06-08T18:55:21.545Z,17.05
2019-06-08T18:57:51.139Z,17.06
2019-06-08T19:00:23.785Z,17.02
2019-06-08T19:02:54.397Z,16.81
2019-06-08T19:05:24.335Z,16.73
2019-06-08T19:07:54.045Z,16.78
2019-06-08T19:10:32.262Z,16.81
2019-06-08T19:13:01.896Z,16.67
2019-06-08T19:15:33.628Z,16.49
2019-06-08T19:18:03.421Z,16.49
2019-06-08T19:20:33.057Z,16.49
2019-06-08T19:23:02.640Z,16.57
2019-06-08T19:25:32.270Z,16.43
2019-06-08T19:28:02.007Z,16.38
2019-06-08T19:30:31.643Z,16.23
2019-06-08T19:33:01.670Z,16.29
2019-06-08T19:35:31.247Z,16.18
2019-06-08T19:38:01.679Z,16.08
2019-06-08T19:40:31.317Z,15.98
2019-06-08T19:43:01.983Z,16.04
2019-06-08T19:45:32.238Z,15.92
2019-06-08T19:48:01.914Z,15.90
2019-06-08T19:50:31.578Z,15.96
2019-06-08T19:53:01.397Z,15.94
2019-06-08T19:55:31.061Z,15.89
2019-06-08T19:58:00.631Z,15.92
2019-06-08T20:00:30.276Z,15.90
2019-06-08T20:02:59.924Z,15.79
2019-06-08T20:05:29.742Z,15.67
2019-06-08T20:07:59.305Z,15.56
2019-06-08T20:10:28.903Z,15.53
2019-06-08T20:12:58.470Z,15.49
2019-06-08T20:15:28.056Z,15.45
2019-06-08T20:17:57.820Z,15.50
2019-06-08T20:20:28.057Z,15.32
2019-06-08T20:22:58.637Z,15.30
2019-06-08T20:25:28.317Z,15.33
2019-06-08T20:27:58.665Z,15.41
2019-06-08T20:30:28.747Z,15.40
2019-06-08T20:32:58.401Z,15.33
2019-06-08T20:35:28.232Z,15.32
2019-06-08T20:37:58.006Z,15.24
2019-06-08T20:40:28.183Z,15.27
2019-06-08T20:42:57.947Z,15.19
2019-06-08T20:45:28.164Z,15.16
2019-06-08T20:47:58.414Z,15.03
2019-06-08T20:50:28.411Z,15.02
2019-06-08T20:52:57.968Z,15.02
2019-06-08T20:55:28.278Z,15.02
2019-06-08T20:57:58.220Z,15.04
2019-06-08T21:00:27.871Z,14.96
2019-06-08T21:03:02.678Z,14.83
2019-06-08T21:05:28.760Z,14.75
2019-06-08T21:07:59.046Z,14.73
2019-06-08T21:10:28.881Z,14.71
2019-06-08T21:12:58.872Z,14.72
2019-06-08T21:15:28.538Z,14.80
2019-06-08T21:17:58.105Z,15.00
2019-06-08T21:20:28.303Z,14.95
2019-06-08T21:22:59.825Z,15.01
2019-06-08T21:25:29.333Z,15.11
2019-06-08T21:27:58.909Z,15.10
2019-06-08T21:30:28.716Z,15.20
2019-06-08T21:33:00.664Z,15.24
2019-06-08T21:35:29.726Z,15.14
2019-06-08T21:38:01.136Z,14.96
2019-06-08T21:40:30.580Z,15.01
2019-06-08T21:43:01.533Z,14.90
2019-06-08T21:45:31.228Z,14.70
2019-06-08T21:48:01.298Z,14.72
2019-06-08T21:50:30.895Z,14.64
2019-06-08T21:53:00.625Z,14.77
2019-06-08T21:55:30.239Z,14.87
2019-06-08T21:58:01.772Z,14.89
2019-06-08T22:00:39.254Z,14.95
2019-06-08T22:03:02.888Z,14.84
2019-06-08T22:05:32.548Z,14.93
2019-06-08T22:08:02.844Z,14.72
2019-06-08T22:10:32.493Z,14.75
2019-06-08T22:13:02.997Z,14.81
2019-06-08T22:15:32.732Z,14.51
2019-06-08T22:18:03.246Z,14.54
2019-06-08T22:20:33.040Z,14.59
2019-06-08T22:23:03.729Z,14.54
2019-06-08T22:25:33.500Z,14.51
2019-06-08T22:28:04.000Z,14.57
2019-06-08T22:30:40.003Z,14.56
2019-06-08T22:33:05.162Z,14.59
2019-06-08T22:35:37.120Z,14.69
2019-06-08T22:38:08.411Z,14.63
2019-06-08T22:40:37.344Z,14.59
2019-06-08T22:43:08.065Z,14.55
2019-06-08T22:45:37.796Z,14.61
2019-06-08T22:48:08.215Z,14.59
2019-06-08T22:50:38.368Z,14.33
2019-06-08T22:53:08.241Z,14.49
2019-06-08T22:55:38.363Z,14.23
2019-06-08T22:58:08.111Z,14.27
2019-06-08T23:00:51.252Z,14.37
2019-06-08T23:03:09.164Z,14.33
2019-06-08T23:05:38.755Z,14.36
2019-06-08T23:08:09.406Z,14.19
2019-06-08T23:10:39.329Z,13.93
2019-06-08T23:13:08.898Z,13.77
2019-06-08T23:15:38.830Z,13.72
2019-06-08T23:18:09.447Z,13.61
2019-06-08T23:20:39.189Z,13.64
2019-06-08T23:23:09.072Z,13.58
2019-06-08T23:25:41.060Z,13.43
2019-06-08T23:28:12.250Z,13.23
2019-06-08T23:30:42.527Z,13.27
2019-06-08T23:33:12.153Z,13.20
2019-06-08T23:36:14.525Z,13.12
2019-06-08T23:38:13.033Z,13.13
2019-06-08T23:40:43.558Z,13.11
2019-06-08T23:43:13.122Z,13.16
2019-06-08T23:45:43.110Z,13.07
2019-06-08T23:48:12.732Z,13.06
2019-06-08T23:50:42.330Z,12.88
2019-06-08T23:53:11.916Z,12.96
2019-06-08T23:55:41.471Z,12.87
2019-06-08T23:58:11.420Z,12.79
